createdAt,value
2018-10-03T00:05:50.661Z,10.50
2018-10-03T00:20:35.987Z,10.30
2018-10-03T00:23:03.646Z,10.30
2018-10-03T00:27:59.151Z,10.20
2018-10-03T00:32:54.306Z,10.20
2018-10-03T00:37:49.566Z,10.10
2018-10-03T00:40:17.218Z,10.20
2018-10-03T00:45:12.472Z,10.30
2018-10-03T00:47:40.102Z,10.40
2018-10-03T00:50:07.769Z,10.50
2018-10-03T00:52:35.423Z,10.40
2018-10-03T00:55:03.105Z,10.50
2018-10-03T00:57:30.725Z,10.50
2018-10-03T00:59:58.340Z,10.50
2018-10-03T01:04:53.556Z,10.50
2018-10-03T01:12:16.254Z,10.40
2018-10-03T01:17:11.423Z,10.40
2018-10-03T01:19:39.033Z,10.30
2018-10-03T01:22:06.647Z,10.30
2018-10-03T01:24:34.258Z,10.30
2018-10-03T01:27:01.893Z,10.20
2018-10-03T01:31:57.083Z,10.30
2018-10-03T01:34:24.754Z,10.30
2018-10-03T01:36:52.418Z,10.30
2018-10-03T01:44:15.291Z,10.40
2018-10-03T01:49:10.419Z,10.40
2018-10-03T01:51:38.067Z,10.40
2018-10-03T01:54:05.691Z,10.40
2018-10-03T01:56:33.316Z,10.40
2018-10-03T01:59:00.993Z,10.50
2018-10-03T02:03:56.514Z,10.60
2018-10-03T02:06:24.139Z,10.70
2018-10-03T02:16:14.429Z,10.60
2018-10-03T02:18:42.091Z,10.70
2018-10-03T02:23:37.240Z,10.60
2018-10-03T02:26:04.899Z,10.70
2018-10-03T02:28:32.529Z,10.70
2018-10-03T02:33:27.743Z,10.80
2018-10-03T02:40:50.485Z,11.70
2018-10-03T02:45:45.679Z,11.90
2018-10-03T02:48:13.361Z,12.00
2018-10-03T02:50:41.022Z,12.10
2018-10-03T03:00:31.281Z,12.10
2018-10-03T03:07:54.006Z,12.10
2018-10-03T03:17:44.316Z,11.60
2018-10-03T03:20:11.993Z,11.60
2018-10-03T03:22:39.658Z,11.50
2018-10-03T03:25:07.271Z,11.50
2018-10-03T03:27:34.871Z,11.50
2018-10-03T03:32:30.042Z,11.60
2018-10-03T03:34:57.638Z,11.50
2018-10-03T03:39:52.786Z,11.60
2018-10-03T03:47:15.454Z,11.50
2018-10-03T03:52:11.179Z,11.50
2018-10-03T03:54:38.767Z,11.50
2018-10-03T04:04:28.928Z,11.60
2018-10-03T04:06:56.539Z,11.70
2018-10-03T04:11:51.677Z,11.60
2018-10-03T04:14:19.295Z,11.60
2018-10-03T04:24:10.550Z,11.70
2018-10-03T04:26:38.807Z,11.80
2018-10-03T04:29:06.443Z,11.70
2018-10-03T04:34:02.790Z,11.70
2018-10-03T04:36:30.550Z,11.80
2018-10-03T04:41:25.668Z,12.00
2018-10-03T04:46:21.367Z,11.90
2018-10-03T04:48:49.009Z,12.00
2018-10-03T04:51:17.059Z,11.90
2018-10-03T04:53:44.687Z,12.00
2018-10-03T04:56:12.308Z,12.10
2018-10-03T04:58:39.935Z,11.90
2018-10-03T05:03:35.646Z,11.80
2018-10-03T05:13:25.904Z,11.80
2018-10-03T05:18:21.048Z,11.70
2018-10-03T05:20:48.678Z,11.70
2018-10-03T05:25:43.810Z,11.60
2018-10-03T05:30:39.156Z,11.60
2018-10-03T05:35:34.291Z,11.70
2018-10-03T05:38:01.910Z,11.70
2018-10-03T05:42:57.090Z,11.80
2018-10-03T05:50:19.758Z,11.90
2018-10-03T05:52:47.367Z,11.80
2018-10-03T05:57:42.501Z,11.90
2018-10-03T06:02:37.738Z,11.90
2018-10-03T06:10:00.471Z,12.10
2018-10-03T06:12:28.090Z,12.00
2018-10-03T06:14:55.738Z,12.20
2018-10-03T06:19:57.646Z,12.20
2018-10-03T06:22:25.266Z,12.20
2018-10-03T06:24:52.875Z,12.30
2018-10-03T06:27:20.523Z,12.30
2018-10-03T06:29:48.196Z,12.40
2018-10-03T06:32:15.971Z,12.30
2018-10-03T06:34:43.707Z,12.30
2018-10-03T06:37:11.409Z,12.40
2018-10-03T06:39:39.031Z,12.40
2018-10-03T06:42:06.727Z,12.50
2018-10-03T06:44:34.375Z,12.30
2018-10-03T06:49:29.518Z,12.40
2018-10-03T06:51:57.171Z,12.50
2018-10-03T06:54:24.898Z,12.50
2018-10-03T07:04:15.214Z,12.60
2018-10-03T07:09:11.362Z,12.50
2018-10-03T07:11:39.215Z,12.50
2018-10-03T07:19:02.387Z,12.50
2018-10-03T07:26:25.075Z,12.40
2018-10-03T07:28:52.806Z,12.40
2018-10-03T07:31:20.419Z,12.40
2018-10-03T07:36:15.606Z,12.30
2018-10-03T07:46:06.417Z,12.00
2018-10-03T07:48:34.059Z,12.10
2018-10-03T08:00:51.993Z,12.00
2018-10-03T08:03:19.639Z,12.00
2018-10-03T08:15:37.506Z,12.80
2018-10-03T08:18:05.187Z,13.20
2018-10-03T08:20:32.910Z,13.30
2018-10-03T08:25:28.219Z,13.70
2018-10-03T08:32:51.426Z,13.60
2018-10-03T08:35:18.986Z,13.70
2018-10-03T08:37:46.631Z,13.80
2018-10-03T08:42:41.862Z,13.90
2018-10-03T08:45:09.520Z,13.90
2018-10-03T08:52:33.483Z,14.10
2018-10-03T09:02:23.695Z,14.50
2018-10-03T09:04:51.355Z,14.60
2018-10-03T09:12:14.043Z,14.90
2018-10-03T09:14:41.675Z,15.10
2018-10-03T09:19:36.898Z,15.20
2018-10-03T09:24:32.043Z,15.40
2018-10-03T09:29:27.204Z,15.90
2018-10-03T09:44:12.507Z,15.90
2018-10-03T09:51:35.808Z,15.80
2018-10-03T09:54:03.753Z,16.00
2018-10-03T10:06:23.469Z,16.50
2018-10-03T10:08:51.091Z,16.70
2018-10-03T10:21:38.294Z,17.20
2018-10-03T10:26:33.467Z,17.60
2018-10-03T10:29:01.078Z,17.70
2018-10-03T10:31:28.718Z,17.50
2018-10-03T10:38:51.395Z,17.20
2018-10-03T10:46:14.118Z,17.60
2018-10-03T10:51:09.250Z,17.30
2018-10-03T11:05:54.523Z,18.60
2018-10-03T11:15:44.861Z,18.00
2018-10-03T11:20:40.024Z,17.60
2018-10-03T11:23:07.643Z,17.20
2018-10-03T11:25:35.266Z,17.40
2018-10-03T11:28:02.886Z,17.40
2018-10-03T11:30:30.467Z,17.40
2018-10-03T11:35:25.614Z,17.40
2018-10-03T11:42:48.294Z,17.70
2018-10-03T11:45:15.914Z,17.20
2018-10-03T12:00:01.153Z,16.80
2018-10-03T12:02:28.918Z,16.90
2018-10-03T12:04:56.542Z,16.90
2018-10-03T12:07:24.163Z,16.20
2018-10-03T12:09:51.795Z,16.20
2018-10-03T12:12:19.442Z,16.30
2018-10-03T12:17:14.568Z,16.40
2018-10-03T12:29:32.288Z,17.10
2018-10-03T12:34:27.426Z,17.10
2018-10-03T12:39:23.087Z,17.60
2018-10-03T12:41:50.709Z,17.80
2018-10-03T12:44:18.318Z,17.90
2018-10-03T12:49:13.510Z,16.80
2018-10-03T12:54:08.691Z,16.50
2018-10-03T12:59:03.880Z,16.40
2018-10-03T13:03:59.035Z,16.20
2018-10-03T13:11:21.841Z,16.20
2018-10-03T13:16:17.212Z,16.00
2018-10-03T13:23:39.931Z,16.00
2018-10-03T13:35:57.768Z,15.80
2018-10-03T13:38:25.395Z,15.70
2018-10-03T13:45:48.106Z,15.70
2018-10-03T13:50:43.279Z,15.80
2018-10-03T14:05:29.410Z,15.60
2018-10-03T14:10:24.559Z,15.60
2018-10-03T14:15:19.718Z,16.80
2018-10-03T14:22:42.388Z,17.60
2018-10-03T14:27:37.522Z,18.00
2018-10-03T14:30:05.232Z,18.20
2018-10-03T14:32:32.877Z,17.90
2018-10-03T14:35:00.489Z,21.50
2018-10-03T14:37:28.121Z,17.70
2018-10-03T14:47:18.422Z,17.80
2018-10-03T14:59:36.343Z,17.60
2018-10-03T15:02:04.006Z,17.50
2018-10-03T15:14:21.739Z,17.30
2018-10-03T15:16:49.371Z,17.40
2018-10-03T15:26:39.530Z,17.10
2018-10-03T15:51:15.610Z,16.50
2018-10-03T15:56:10.790Z,16.40
2018-10-03T15:58:38.426Z,16.40
2018-10-03T16:06:01.059Z,16.30
2018-10-03T16:08:28.714Z,16.20
2018-10-03T16:10:56.369Z,16.10
2018-10-03T16:13:23.991Z,16.00
2018-10-03T16:23:14.221Z,15.80
2018-10-03T16:30:36.851Z,15.40
2018-10-03T16:37:59.526Z,15.30
2018-10-03T16:42:54.743Z,15.30
2018-10-03T16:45:22.426Z,15.30
2018-10-03T16:55:12.668Z,15.00
2018-10-03T16:57:40.328Z,15.00
2018-10-03T17:00:07.977Z,14.90
2018-10-03T17:02:35.598Z,14.90
2018-10-03T17:14:53.636Z,14.30
2018-10-03T17:17:21.300Z,14.40
2018-10-03T17:19:48.902Z,14.40
2018-10-03T17:27:11.552Z,14.30
2018-10-03T17:32:06.746Z,14.30
2018-10-03T17:46:54.242Z,13.80
2018-10-03T17:54:17.083Z,13.60
2018-10-03T17:56:44.678Z,13.60
2018-10-03T18:01:48.585Z,13.40
2018-10-03T18:06:43.817Z,13.20
2018-10-03T18:14:07.234Z,13.10
2018-10-03T18:16:34.924Z,13.00
2018-10-03T18:23:57.780Z,12.90
2018-10-03T18:26:25.433Z,12.80
2018-10-03T18:36:15.945Z,12.70
2018-10-03T18:41:11.151Z,12.60
2018-10-03T18:43:38.810Z,12.90
2018-10-03T19:00:51.830Z,12.50
2018-10-03T19:05:47.015Z,12.40
2018-10-03T19:10:42.322Z,12.30
2018-10-03T19:20:32.935Z,12.20
2018-10-03T19:23:00.583Z,12.10
2018-10-03T19:30:23.434Z,12.00
2018-10-03T19:37:46.180Z,12.00
2018-10-03T19:45:08.925Z,12.00
2018-10-03T19:47:36.641Z,12.00
2018-10-03T19:50:04.377Z,12.00
2018-10-03T19:52:32.058Z,12.00
2018-10-03T19:57:27.262Z,12.00
2018-10-03T19:59:54.978Z,11.90
2018-10-03T20:04:50.236Z,11.90
2018-10-03T20:09:45.451Z,11.90
2018-10-03T20:12:13.066Z,11.80
2018-10-03T20:14:40.691Z,11.80
2018-10-03T20:19:35.914Z,11.80
2018-10-03T20:22:03.667Z,11.80
2018-10-03T20:29:26.430Z,11.70
2018-10-03T20:31:54.074Z,11.70
2018-10-03T20:34:21.707Z,11.70
2018-10-03T20:41:44.499Z,11.60
2018-10-03T20:44:12.148Z,11.60
2018-10-03T20:46:39.964Z,11.60
2018-10-03T20:51:35.366Z,11.60
2018-10-03T20:56:30.851Z,11.60
2018-10-03T21:03:53.874Z,11.60
2018-10-03T21:06:21.564Z,11.50
2018-10-03T21:08:49.305Z,11.50
2018-10-03T21:11:16.959Z,11.50
2018-10-03T21:16:12.136Z,11.50
2018-10-03T21:23:34.978Z,11.70
2018-10-03T21:26:02.663Z,11.80
2018-10-03T21:30:57.902Z,12.00
2018-10-03T21:33:25.543Z,12.00
2018-10-03T21:35:53.274Z,12.00
2018-10-03T21:40:48.558Z,12.00
2018-10-03T21:45:43.730Z,11.90
2018-10-03T21:50:39.130Z,11.70
2018-10-03T21:53:06.787Z,11.70
2018-10-03T21:55:34.398Z,11.70
2018-10-03T22:00:35.167Z,11.70
2018-10-03T22:03:03.040Z,11.70
2018-10-03T22:05:30.741Z,11.60
2018-10-03T22:07:58.387Z,11.60
2018-10-03T22:12:53.583Z,11.60
2018-10-03T22:15:21.253Z,11.50
2018-10-03T22:17:49.138Z,11.50
2018-10-03T22:22:44.377Z,11.40
2018-10-03T22:25:11.990Z,11.30
2018-10-03T22:27:39.611Z,11.30
2018-10-03T22:32:34.791Z,11.20
2018-10-03T22:35:02.450Z,11.10
2018-10-03T22:37:30.123Z,11.10
2018-10-03T22:42:25.322Z,11.10
2018-10-03T22:44:53.022Z,11.10
2018-10-03T22:47:20.767Z,11.10
2018-10-03T22:54:43.599Z,11.00
2018-10-03T22:57:11.338Z,10.90
2018-10-03T22:59:38.999Z,10.80
2018-10-03T23:04:34.532Z,10.80
2018-10-03T23:07:02.238Z,10.70
2018-10-03T23:11:57.490Z,10.70
2018-10-03T23:14:25.078Z,10.60
2018-10-03T23:16:52.819Z,10.60
2018-10-03T23:19:20.439Z,10.60
2018-10-03T23:24:15.599Z,10.50
2018-10-03T23:26:43.242Z,10.50
2018-10-03T23:29:10.872Z,10.50
2018-10-03T23:34:06.017Z,10.40
2018-10-03T23:39:01.142Z,10.40
2018-10-03T23:43:56.272Z,10.30
2018-10-03T23:46:23.907Z,10.30
2018-10-03T23:48:51.518Z,10.20
2018-10-03T23:51:19.134Z,10.20
2018-10-03T23:56:14.271Z,10.20
2018-10-03T23:58:41.913Z,10.20
